createdAt,value
2019-05-07T00:01:02.708Z,20.50
2019-05-07T00:05:22.967Z,31.55
2019-05-07T00:09:43.799Z,22.22
2019-05-07T00:14:04.190Z,22.98
2019-05-07T00:18:25.243Z,27.25
2019-05-07T00:22:45.234Z,27.48
2019-05-07T00:27:05.411Z,23.65
2019-05-07T00:31:25.751Z,22.58
2019-05-07T00:35:46.092Z,29.05
2019-05-07T00:40:06.468Z,24.90
2019-05-07T00:44:27.305Z,25.80
2019-05-07T00:48:47.444Z,25.80
2019-05-07T00:53:08.189Z,27.67
2019-05-07T00:57:29.110Z,23.55
2019-05-07T01:01:49.577Z,22.17
2019-05-07T01:06:09.875Z,28.25
2019-05-07T01:10:32.983Z,19.48
2019-05-07T01:14:53.583Z,25.97
2019-05-07T01:19:13.713Z,29.57
2019-05-07T01:23:34.003Z,29.90
2019-05-07T01:27:54.396Z,25.43
2019-05-07T01:32:14.875Z,25.43
2019-05-07T01:36:35.535Z,26.80
2019-05-07T01:40:56.969Z,29.18
2019-05-07T01:45:17.190Z,28.45
2019-05-07T01:49:37.398Z,26.70
2019-05-07T01:53:57.875Z,32.50
2019-05-07T01:58:18.222Z,29.52
2019-05-07T02:02:38.347Z,34.40
2019-05-07T02:06:58.861Z,31.20
2019-05-07T02:11:21.747Z,31.87
2019-05-07T02:15:42.803Z,31.85
2019-05-07T02:20:04.911Z,31.35
2019-05-07T02:24:25.507Z,33.35
2019-05-07T02:28:45.618Z,27.90
2019-05-07T02:33:06.145Z,31.10
2019-05-07T02:37:33.738Z,25.85
2019-05-07T02:41:49.445Z,32.20
2019-05-07T02:46:22.481Z,30.60
2019-05-07T02:50:33.029Z,29.15
2019-05-07T02:54:54.062Z,30.82
2019-05-07T02:59:14.886Z,29.25
2019-05-07T03:03:35.747Z,36.55
2019-05-07T03:07:55.950Z,30.77
2019-05-07T03:12:16.428Z,24.92
2019-05-07T03:16:43.577Z,29.25
2019-05-07T03:20:59.193Z,38.30
2019-05-07T03:25:22.513Z,31.62
2019-05-07T03:29:44.169Z,28.73
2019-05-07T03:34:06.903Z,35.10
2019-05-07T03:38:27.129Z,27.58
2019-05-07T03:42:47.704Z,37.80
2019-05-07T03:47:08.155Z,30.37
2019-05-07T03:51:28.670Z,30.02
2019-05-07T03:55:49.073Z,31.40
2019-05-07T04:00:12.941Z,31.85
2019-05-07T04:04:37.538Z,31.60
2019-05-07T04:08:57.859Z,30.88
2019-05-07T04:13:18.178Z,29.20
2019-05-07T04:17:38.637Z,30.77
2019-05-07T04:21:59.284Z,31.77
2019-05-07T04:26:22.930Z,31.52
2019-05-07T04:30:43.720Z,32.48
2019-05-07T04:35:04.539Z,33.65
2019-05-07T04:39:25.119Z,29.90
2019-05-07T04:43:45.322Z,29.12
2019-05-07T04:48:06.661Z,41.08
2019-05-07T04:52:27.034Z,35.68
2019-05-07T04:56:47.788Z,29.98
2019-05-07T05:01:07.888Z,32.88
2019-05-07T05:05:28.458Z,32.08
2019-05-07T05:09:49.142Z,26.52
2019-05-07T05:14:09.563Z,29.18
2019-05-07T05:18:32.826Z,31.12
2019-05-07T05:22:53.309Z,34.58
2019-05-07T05:27:13.706Z,34.40
2019-05-07T05:31:34.755Z,35.40
2019-05-07T05:35:55.640Z,29.02
2019-05-07T05:40:18.690Z,28.00
2019-05-07T05:44:39.253Z,31.77
2019-05-07T05:48:59.935Z,25.90
2019-05-07T05:53:21.873Z,31.62
2019-05-07T05:57:43.292Z,33.98
2019-05-07T06:02:06.494Z,30.45
2019-05-07T06:06:27.132Z,31.27
2019-05-07T06:10:47.774Z,30.50
2019-05-07T06:15:08.812Z,30.35
2019-05-07T06:19:29.908Z,28.98
2019-05-07T06:23:52.828Z,27.52
2019-05-07T06:28:13.937Z,32.75
2019-05-07T06:32:34.661Z,25.62
2019-05-07T06:36:54.933Z,23.73
2019-05-07T06:41:16.074Z,25.27
2019-05-07T06:45:37.445Z,22.58
2019-05-07T06:49:58.072Z,21.60
2019-05-07T06:54:19.099Z,23.02
2019-05-07T06:58:42.024Z,20.25
2019-05-07T07:03:02.436Z,23.42
2019-05-07T07:07:29.865Z,24.07
2019-05-07T07:11:46.240Z,21.68
2019-05-07T07:16:18.633Z,22.65
2019-05-07T07:20:48.643Z,20.95
2019-05-07T07:25:11.768Z,21.30
2019-05-07T07:29:34.149Z,22.48
2019-05-07T07:33:54.905Z,25.57
2019-05-07T07:38:15.446Z,23.98
2019-05-07T07:42:36.035Z,25.82
2019-05-07T07:46:56.788Z,25.15
2019-05-07T07:51:17.531Z,22.48
2019-05-07T07:55:37.970Z,25.72
2019-05-07T07:59:58.855Z,25.43
2019-05-07T08:04:22.847Z,31.40
2019-05-07T08:08:44.290Z,22.02
2019-05-07T08:13:05.129Z,23.18
2019-05-07T08:17:25.351Z,27.27
2019-05-07T08:21:46.560Z,27.05
2019-05-07T08:26:07.260Z,27.93
2019-05-07T08:30:28.057Z,20.00
2019-05-07T08:34:48.701Z,20.23
2019-05-07T08:39:09.509Z,23.12
2019-05-07T08:43:32.154Z,29.45
2019-05-07T08:47:53.063Z,16.90
2019-05-07T08:52:13.617Z,22.62
2019-05-07T08:56:35.538Z,21.40
2019-05-07T09:00:56.746Z,19.67
2019-05-07T09:05:18.082Z,24.45
2019-05-07T09:09:38.931Z,22.62
2019-05-07T09:14:01.734Z,23.80
2019-05-07T09:18:22.890Z,25.65
2019-05-07T09:22:43.359Z,21.85
2019-05-07T09:27:03.869Z,19.75
2019-05-07T09:31:24.359Z,26.82
2019-05-07T09:35:45.257Z,23.07
2019-05-07T09:40:07.392Z,24.85
2019-05-07T09:44:28.309Z,31.45
2019-05-07T09:48:49.412Z,22.65
2019-05-07T09:53:12.557Z,24.55
2019-05-07T09:57:34.787Z,22.85
2019-05-07T10:01:56.523Z,25.43
2019-05-07T10:06:19.230Z,25.25
2019-05-07T10:10:41.704Z,25.15
2019-05-07T10:15:03.565Z,18.55
2019-05-07T10:19:24.560Z,17.85
2019-05-07T10:23:47.276Z,15.43
2019-05-07T10:28:08.305Z,23.25
2019-05-07T10:32:32.057Z,20.32
2019-05-07T10:36:53.357Z,17.90
2019-05-07T10:41:14.320Z,22.02
2019-05-07T10:45:35.566Z,20.97
2019-05-07T10:49:55.915Z,19.90
2019-05-07T10:54:16.327Z,20.00
2019-05-07T10:58:37.340Z,19.42
2019-05-07T11:02:58.366Z,18.92
2019-05-07T11:07:18.647Z,19.17
2019-05-07T11:11:39.392Z,20.05
2019-05-07T11:16:02.360Z,21.73
2019-05-07T11:20:22.939Z,35.43
2019-05-07T11:24:43.358Z,23.42
2019-05-07T11:29:04.317Z,29.05
2019-05-07T11:33:25.320Z,19.17
2019-05-07T11:37:46.183Z,21.68
2019-05-07T11:42:07.028Z,24.98
2019-05-07T11:46:27.888Z,19.92
2019-05-07T11:51:00.558Z,22.93
2019-05-07T11:55:12.109Z,28.77
2019-05-07T11:59:32.732Z,23.57
2019-05-07T12:03:53.518Z,20.57
2019-05-07T12:08:14.147Z,20.68
2019-05-07T12:12:34.887Z,23.00
2019-05-07T12:16:55.726Z,23.62
2019-05-07T12:21:20.716Z,21.48
2019-05-07T12:25:38.749Z,23.95
2019-05-07T12:29:59.059Z,20.37
2019-05-07T12:34:20.163Z,22.22
2019-05-07T12:38:41.702Z,18.73
2019-05-07T12:43:02.512Z,19.82
2019-05-07T12:47:23.144Z,25.77
2019-05-07T12:51:44.186Z,26.55
2019-05-07T12:56:04.637Z,24.00
2019-05-07T13:00:27.254Z,25.27
2019-05-07T13:04:48.452Z,23.20
2019-05-07T13:09:10.093Z,22.22
2019-05-07T13:13:32.023Z,21.35
2019-05-07T13:17:52.819Z,23.55
2019-05-07T13:22:14.336Z,26.15
2019-05-07T13:26:35.104Z,23.83
2019-05-07T13:30:55.408Z,24.70
2019-05-07T13:35:15.839Z,21.82
2019-05-07T13:39:36.981Z,21.93
2019-05-07T13:43:58.145Z,24.18
2019-05-07T13:48:18.729Z,19.15
2019-05-07T13:52:39.842Z,18.25
2019-05-07T13:57:01.378Z,20.15
2019-05-07T14:01:22.962Z,18.25
2019-05-07T14:05:44.314Z,18.15
2019-05-07T14:10:04.773Z,19.73
2019-05-07T14:14:25.704Z,16.82
2019-05-07T14:18:46.633Z,23.00
2019-05-07T14:23:07.513Z,16.80
2019-05-07T14:27:27.755Z,18.92
2019-05-07T14:31:48.608Z,18.40
2019-05-07T14:36:11.632Z,17.12
2019-05-07T14:40:32.627Z,16.80
2019-05-07T14:44:53.216Z,16.65
2019-05-07T14:49:14.163Z,17.20
2019-05-07T14:53:34.480Z,16.82
2019-05-07T14:57:55.360Z,21.25
2019-05-07T15:02:15.954Z,14.55
2019-05-07T15:06:36.558Z,20.48
2019-05-07T15:10:58.154Z,14.80
2019-05-07T15:15:18.968Z,13.25
2019-05-07T15:19:39.419Z,15.00
2019-05-07T15:24:02.330Z,12.28
2019-05-07T15:28:23.400Z,15.03
2019-05-07T15:32:44.825Z,20.32
2019-05-07T15:37:05.980Z,21.62
2019-05-07T15:41:26.253Z,19.37
2019-05-07T15:45:47.821Z,14.43
2019-05-07T15:50:08.818Z,16.55
2019-05-07T15:54:29.387Z,17.37
2019-05-07T15:58:51.764Z,12.03
2019-05-07T16:03:12.819Z,15.05
2019-05-07T16:07:33.543Z,16.20
2019-05-07T16:11:55.220Z,15.72
2019-05-07T16:16:16.216Z,12.65
2019-05-07T16:20:37.469Z,13.78
2019-05-07T16:24:58.865Z,14.05
2019-05-07T16:29:22.385Z,13.83
2019-05-07T16:33:43.468Z,14.23
2019-05-07T16:38:04.196Z,12.80
2019-05-07T16:42:24.979Z,11.22
2019-05-07T16:46:46.020Z,12.05
2019-05-07T16:51:07.294Z,13.38
2019-05-07T16:55:28.269Z,12.47
2019-05-07T16:59:48.982Z,11.43
2019-05-07T17:04:12.020Z,12.68
2019-05-07T17:08:32.816Z,18.92
2019-05-07T17:12:53.334Z,8.68
2019-05-07T17:17:14.464Z,10.03
2019-05-07T17:21:36.544Z,9.28
2019-05-07T17:25:57.109Z,21.40
2019-05-07T17:30:17.984Z,9.18
2019-05-07T17:34:39.107Z,9.40
2019-05-07T17:39:00.128Z,8.43
2019-05-07T17:43:21.937Z,9.73
2019-05-07T17:47:42.675Z,9.83
2019-05-07T17:52:04.091Z,6.60
2019-05-07T17:56:25.652Z,7.75
2019-05-07T18:00:46.116Z,6.72
2019-05-07T18:05:07.494Z,8.43
2019-05-07T18:09:28.699Z,4.72
2019-05-07T18:13:49.464Z,4.55
2019-05-07T18:18:12.835Z,9.65
2019-05-07T18:22:33.133Z,12.10
2019-05-07T18:26:53.823Z,9.08
2019-05-07T18:31:15.889Z,11.75
2019-05-07T18:35:36.856Z,7.65
2019-05-07T18:39:57.835Z,9.63
2019-05-07T18:44:18.772Z,11.12
2019-05-07T18:48:39.683Z,6.70
2019-05-07T18:53:00.197Z,6.40
2019-05-07T18:57:22.274Z,6.62
2019-05-07T19:01:42.997Z,10.72
2019-05-07T19:06:03.948Z,8.45
2019-05-07T19:10:24.536Z,10.65
2019-05-07T19:14:49.135Z,6.05
2019-05-07T19:19:12.315Z,6.37
2019-05-07T19:23:35.480Z,10.43
2019-05-07T19:28:15.008Z,9.50
2019-05-07T19:32:36.084Z,12.33
2019-05-07T19:36:56.776Z,12.70
2019-05-07T19:41:17.600Z,7.33
2019-05-07T19:45:38.526Z,7.40
2019-05-07T19:49:59.238Z,11.10
2019-05-07T19:54:23.223Z,9.23
2019-05-07T19:58:45.642Z,8.23
2019-05-07T20:03:06.307Z,14.47
2019-05-07T20:07:27.000Z,7.90
2019-05-07T20:11:48.087Z,9.70
2019-05-07T20:16:12.265Z,14.87
2019-05-07T20:20:33.358Z,11.40
2019-05-07T20:24:54.726Z,14.45
2019-05-07T20:29:15.530Z,11.05
2019-05-07T20:33:35.996Z,11.83
2019-05-07T20:38:04.054Z,13.22
2019-05-07T20:42:26.227Z,8.60
2019-05-07T20:46:48.039Z,8.80
2019-05-07T20:51:08.461Z,8.18
2019-05-07T20:55:33.211Z,12.88
2019-05-07T20:59:51.675Z,11.35
2019-05-07T21:04:13.212Z,5.20
2019-05-07T21:08:33.772Z,7.65
2019-05-07T21:12:54.171Z,12.80
2019-05-07T21:17:15.196Z,11.88
2019-05-07T21:21:35.513Z,8.48
2019-05-07T21:25:55.946Z,8.75
2019-05-07T21:30:17.622Z,12.33
2019-05-07T21:34:38.704Z,8.65
2019-05-07T21:38:58.790Z,11.48
2019-05-07T21:43:21.847Z,7.45
2019-05-07T21:47:43.162Z,10.48
2019-05-07T21:52:03.601Z,12.80
2019-05-07T21:56:25.057Z,7.12
2019-05-07T22:00:47.607Z,9.93
2019-05-07T22:05:08.597Z,8.75
2019-05-07T22:09:28.682Z,9.43
2019-05-07T22:13:49.294Z,9.80
2019-05-07T22:18:11.963Z,8.08
2019-05-07T22:22:32.297Z,6.78
2019-05-07T22:26:52.974Z,10.25
2019-05-07T22:31:13.927Z,9.35
2019-05-07T22:35:35.437Z,13.80
2019-05-07T22:39:56.916Z,6.60
2019-05-07T22:44:17.783Z,10.63
2019-05-07T22:48:38.951Z,7.40
2019-05-07T22:52:59.342Z,8.05
2019-05-07T22:57:19.492Z,9.50
2019-05-07T23:01:39.748Z,9.23
2019-05-07T23:05:59.821Z,7.05
2019-05-07T23:10:19.927Z,11.05
2019-05-07T23:14:40.701Z,7.05
2019-05-07T23:19:00.779Z,10.45
2019-05-07T23:23:21.746Z,8.53
2019-05-07T23:27:42.524Z,8.40
2019-05-07T23:32:02.981Z,11.80
2019-05-07T23:36:23.161Z,7.05
2019-05-07T23:40:45.073Z,11.68
2019-05-07T23:45:05.958Z,10.18
2019-05-07T23:49:26.327Z,6.87
2019-05-07T23:53:47.062Z,5.67
2019-05-07T23:58:07.616Z,10.25
